createdAt,value
2019-01-21T00:02:26.381Z,98193.27
2019-01-21T00:04:58.942Z,98196.84
2019-01-21T00:07:31.423Z,98191.63
2019-01-21T00:10:04.063Z,98193.95
2019-01-21T00:12:36.511Z,98191.25
2019-01-21T00:15:09.233Z,98193.08
2019-01-21T00:17:41.704Z,98197.66
2019-01-21T00:20:14.387Z,98203.31
2019-01-21T00:22:46.867Z,98203.81
2019-01-21T00:25:19.460Z,98206.34
2019-01-21T00:27:52.215Z,98204.12
2019-01-21T00:30:26.498Z,98211.66
2019-01-21T00:32:58.869Z,98214.30
2019-01-21T00:35:31.239Z,98210.59
2019-01-21T00:38:03.715Z,98213.12
2019-01-21T00:40:36.109Z,98212.41
2019-01-21T00:43:08.683Z,98215.30
2019-01-21T00:45:41.363Z,98215.84
2019-01-21T00:48:13.735Z,98221.95
2019-01-21T00:50:46.419Z,98222.02
2019-01-21T00:53:18.801Z,98224.19
2019-01-21T00:55:51.689Z,98223.14
2019-01-21T00:58:24.164Z,98219.92
2019-01-21T01:00:56.792Z,98221.06
2019-01-21T01:03:29.374Z,98223.23
2019-01-21T01:06:01.859Z,98224.59
2019-01-21T01:08:34.440Z,98231.23
2019-01-21T01:11:07.122Z,98231.08
2019-01-21T01:13:39.606Z,98233.67
2019-01-21T01:16:12.093Z,98233.19
2019-01-21T01:18:44.858Z,98233.30
2019-01-21T01:21:17.436Z,98233.67
2019-01-21T01:23:49.911Z,98241.45
2019-01-21T01:26:22.401Z,98248.25
2019-01-21T01:28:54.770Z,98244.69
2019-01-21T01:31:27.143Z,98248.11
2019-01-21T01:33:59.524Z,98249.61
2019-01-21T01:36:31.905Z,98247.82
2019-01-21T01:39:05.845Z,98247.05
2019-01-21T01:41:38.519Z,98248.83
2019-01-21T01:44:11.199Z,98254.57
2019-01-21T01:46:43.885Z,98254.06
2019-01-21T01:49:16.458Z,98257.00
2019-01-21T01:51:49.037Z,98255.34
2019-01-21T01:54:21.711Z,98251.72
2019-01-21T01:56:54.288Z,98248.84
2019-01-21T01:59:27.032Z,98253.84
2019-01-21T02:01:59.404Z,98252.72
2019-01-21T02:04:32.078Z,98252.16
2019-01-21T02:07:04.851Z,98250.84
2019-01-21T02:09:37.322Z,98246.30
2019-01-21T02:12:09.992Z,98247.78
2019-01-21T02:14:42.477Z,98245.45
2019-01-21T02:17:14.956Z,98246.06
2019-01-21T02:19:48.118Z,98244.85
2019-01-21T02:22:23.996Z,98246.06
2019-01-21T02:25:01.319Z,98249.99
2019-01-21T02:28:18.566Z,98252.59
2019-01-21T02:31:33.303Z,98252.02
2019-01-21T02:35:01.561Z,98245.80
2019-01-21T02:38:33.321Z,98238.98
2019-01-21T02:41:31.290Z,98238.32
2019-01-21T02:45:03.932Z,98234.97
2019-01-21T02:48:13.893Z,98235.36
2019-01-21T02:51:41.075Z,98235.06
2019-01-21T02:55:09.019Z,98237.81
2019-01-21T02:58:26.137Z,98229.27
2019-01-21T03:01:40.541Z,98228.11
2019-01-21T03:05:16.610Z,98227.68
2019-01-21T03:08:49.084Z,98226.16
2019-01-21T03:12:19.209Z,98231.53
2019-01-21T03:15:45.382Z,98232.87
2019-01-21T03:19:14.769Z,98233.09
2019-01-21T03:23:04.657Z,98233.89
2019-01-21T03:26:34.429Z,98236.12
2019-01-21T03:29:58.948Z,98234.09
2019-01-21T03:33:53.587Z,98232.66
2019-01-21T03:37:24.510Z,98239.20
2019-01-21T03:41:15.966Z,98241.40
2019-01-21T03:44:55.245Z,98241.53
2019-01-21T03:48:16.689Z,98240.63
2019-01-21T03:51:49.093Z,98238.48
2019-01-21T03:54:57.726Z,98233.56
2019-01-21T03:58:02.359Z,98237.05
2019-01-21T04:01:18.978Z,98236.95
2019-01-21T04:05:12.119Z,98235.64
2019-01-21T04:08:44.908Z,98239.91
2019-01-21T04:12:29.119Z,98236.28
2019-01-21T04:16:05.176Z,98241.11
2019-01-21T04:19:26.933Z,98241.44
2019-01-21T04:22:38.014Z,98244.73
2019-01-21T04:26:11.768Z,98246.13
2019-01-21T04:29:05.750Z,98243.75
2019-01-21T04:32:43.297Z,98239.99
2019-01-21T04:35:59.919Z,98240.63
2019-01-21T04:39:08.423Z,98244.66
2019-01-21T04:42:45.717Z,98240.22
2019-01-21T04:45:42.233Z,98237.80
2019-01-21T04:48:33.076Z,98236.95
2019-01-21T04:52:03.450Z,98242.28
2019-01-21T04:55:28.102Z,98239.95
2019-01-21T04:58:55.257Z,98240.39
2019-01-21T05:03:00.565Z,98247.05
2019-01-21T05:06:02.827Z,98244.78
2019-01-21T05:09:42.565Z,98245.80
2019-01-21T05:13:00.303Z,98244.17
2019-01-21T05:16:24.338Z,98247.11
2019-01-21T05:19:38.871Z,98244.93
2019-01-21T05:23:20.450Z,98239.21
2019-01-21T05:26:47.517Z,98246.11
2019-01-21T05:30:10.512Z,98240.91
2019-01-21T05:33:20.167Z,98245.20
2019-01-21T05:36:49.806Z,98245.49
2019-01-21T05:39:56.316Z,98246.75
2019-01-21T05:43:25.570Z,98250.67
2019-01-21T05:46:53.362Z,98255.11
2019-01-21T05:50:25.589Z,98252.00
2019-01-21T05:54:06.096Z,98252.16
2019-01-21T05:57:31.101Z,98255.13
2019-01-21T06:00:48.734Z,98263.23
2019-01-21T06:04:19.816Z,98267.63
2019-01-21T06:07:47.941Z,98274.77
2019-01-21T06:10:54.961Z,98276.61
2019-01-21T06:14:25.688Z,98273.09
2019-01-21T06:17:30.180Z,98273.52
2019-01-21T06:21:13.253Z,98275.69
2019-01-21T06:24:34.950Z,98278.28
2019-01-21T06:27:53.003Z,98283.14
2019-01-21T06:30:59.408Z,98284.38
2019-01-21T06:34:16.996Z,98287.02
2019-01-21T06:37:32.122Z,98289.47
2019-01-21T06:41:06.991Z,98284.80
2019-01-21T06:44:25.932Z,98290.80
2019-01-21T06:48:12.806Z,98297.34
2019-01-21T06:51:37.291Z,98304.42
2019-01-21T06:54:42.804Z,98309.33
2019-01-21T06:57:56.881Z,98304.12
2019-01-21T07:01:36.686Z,98313.84
2019-01-21T07:05:06.795Z,98316.01
2019-01-21T07:08:39.603Z,98314.68
2019-01-21T07:12:01.169Z,98316.47
2019-01-21T07:15:35.474Z,98318.53
2019-01-21T07:19:11.122Z,98320.23
2019-01-21T07:22:49.845Z,98312.98
2019-01-21T07:26:37.087Z,98313.44
2019-01-21T07:30:15.144Z,98309.78
2019-01-21T07:33:49.264Z,98310.89
2019-01-21T07:37:29.404Z,98309.02
2019-01-21T07:40:42.363Z,98304.35
2019-01-21T07:43:53.289Z,98300.83
2019-01-21T07:47:49.127Z,98305.86
2019-01-21T07:51:32.119Z,98300.34
2019-01-21T07:55:05.423Z,98302.20
2019-01-21T07:58:40.125Z,98310.86
2019-01-21T08:01:26.291Z,98312.49
2019-01-21T08:04:54.099Z,98307.97
2019-01-21T08:08:34.088Z,98305.75
2019-01-21T08:12:11.790Z,98301.16
2019-01-21T08:15:50.271Z,98301.69
2019-01-21T08:19:25.968Z,98292.16
2019-01-21T08:22:57.993Z,98292.30
2019-01-21T08:26:23.304Z,98291.31
2019-01-21T08:30:21.803Z,98284.80
2019-01-21T08:33:30.947Z,98280.05
2019-01-21T08:36:48.337Z,98274.00
2019-01-21T08:40:10.190Z,98265.52
2019-01-21T08:43:44.000Z,98265.97
2019-01-21T08:47:08.057Z,98270.80
2019-01-21T08:50:55.199Z,98264.56
2019-01-21T08:54:23.298Z,98266.13
2019-01-21T08:57:48.476Z,98258.39
2019-01-21T09:01:10.053Z,98259.70
2019-01-21T09:04:40.564Z,98262.86
2019-01-21T09:08:17.444Z,98269.13
2019-01-21T09:11:56.457Z,98273.97
2019-01-21T09:15:31.495Z,98278.75
2019-01-21T09:19:06.139Z,98281.02
2019-01-21T09:22:30.951Z,98279.03
2019-01-21T09:25:53.066Z,98284.55
2019-01-21T09:29:32.027Z,98288.94
2019-01-21T09:32:54.478Z,98297.38
2019-01-21T09:36:15.841Z,98297.17
2019-01-21T09:39:47.094Z,98301.25
2019-01-21T09:42:56.739Z,98299.40
2019-01-21T09:46:18.597Z,98303.14
2019-01-21T09:48:48.057Z,98310.91
2019-01-21T09:51:21.474Z,98310.21
2019-01-21T09:53:57.223Z,98318.03
2019-01-21T09:56:33.947Z,98314.35
2019-01-21T09:59:06.895Z,98308.38
2019-01-21T10:01:39.495Z,98308.37
2019-01-21T10:04:15.951Z,98306.55
2019-01-21T10:07:20.743Z,98300.69
2019-01-21T10:10:36.647Z,98299.89
2019-01-21T10:14:29.893Z,98295.66
2019-01-21T10:17:40.252Z,98295.20
2019-01-21T10:21:01.610Z,98286.74
2019-01-21T10:24:15.988Z,98286.08
2019-01-21T10:28:05.803Z,98292.38
2019-01-21T10:31:11.579Z,98287.88
2019-01-21T10:34:51.649Z,98285.61
2019-01-21T10:38:32.322Z,98285.64
2019-01-21T10:41:26.555Z,98276.20
2019-01-21T10:44:46.106Z,98270.59
2019-01-21T10:47:52.050Z,98271.92
2019-01-21T10:51:00.024Z,98265.63
2019-01-21T10:54:23.271Z,98262.02
2019-01-21T10:57:39.635Z,98265.84
2019-01-21T11:01:08.793Z,98253.22
2019-01-21T11:04:45.413Z,98255.37
2019-01-21T11:08:22.070Z,98253.92
2019-01-21T11:11:54.112Z,98243.86
2019-01-21T11:14:38.256Z,98235.95
2019-01-21T11:18:02.657Z,98238.58
2019-01-21T11:21:22.018Z,98241.06
2019-01-21T11:25:01.032Z,98246.13
2019-01-21T11:28:19.202Z,98240.42
2019-01-21T11:31:23.757Z,98238.59
2019-01-21T11:34:28.258Z,98235.64
2019-01-21T11:37:51.242Z,98232.64
2019-01-21T11:41:04.752Z,98230.46
2019-01-21T11:44:27.136Z,98214.11
2019-01-21T11:47:54.296Z,98208.30
2019-01-21T11:50:41.600Z,98200.18
2019-01-21T11:54:16.083Z,98183.95
2019-01-21T11:57:11.013Z,98183.14
2019-01-21T12:00:32.076Z,98182.73
2019-01-21T12:03:37.027Z,98173.94
2019-01-21T12:06:31.589Z,98179.63
2019-01-21T12:09:51.504Z,98173.58
2019-01-21T12:12:59.685Z,98167.41
2019-01-21T12:16:37.359Z,98160.56
2019-01-21T12:19:52.384Z,98160.22
2019-01-21T12:23:03.926Z,98156.34
2019-01-21T12:25:56.087Z,98167.48
2019-01-21T12:29:07.442Z,98176.69
2019-01-21T12:32:38.373Z,98171.77
2019-01-21T12:36:00.318Z,98178.86
2019-01-21T12:39:19.215Z,98174.93
2019-01-21T12:42:44.491Z,98163.38
2019-01-21T12:46:09.704Z,98166.06
2019-01-21T12:49:52.201Z,98157.41
2019-01-21T12:52:52.169Z,98154.03
2019-01-21T12:56:22.032Z,98145.33
2019-01-21T12:59:24.953Z,98143.25
2019-01-21T13:03:05.600Z,98142.28
2019-01-21T13:05:57.319Z,98143.73
2019-01-21T13:09:13.433Z,98130.73
2019-01-21T13:12:29.200Z,98121.41
2019-01-21T13:15:37.622Z,98109.60
2019-01-21T13:18:53.720Z,98092.78
2019-01-21T13:22:14.816Z,98082.56
2019-01-21T13:25:57.814Z,98073.36
2019-01-21T13:29:32.110Z,98071.10
2019-01-21T13:32:56.269Z,98068.03
2019-01-21T13:36:52.103Z,98069.38
2019-01-21T13:39:52.384Z,98058.33
2019-01-21T13:42:55.349Z,98051.77
2019-01-21T13:46:15.254Z,98042.22
2019-01-21T13:49:24.273Z,98039.78
2019-01-21T13:52:59.796Z,98033.31
2019-01-21T13:56:19.904Z,98034.17
2019-01-21T13:59:19.021Z,98035.34
2019-01-21T14:02:31.810Z,98033.64
2019-01-21T14:05:44.228Z,98029.14
2019-01-21T14:08:54.867Z,98033.57
2019-01-21T14:12:34.949Z,98038.57
2019-01-21T14:16:12.784Z,98043.31
2019-01-21T14:19:29.103Z,98062.42
2019-01-21T14:23:13.903Z,98054.56
2019-01-21T14:26:47.429Z,98060.74
2019-01-21T14:30:07.469Z,98067.77
2019-01-21T14:33:25.171Z,98062.59
2019-01-21T14:36:46.244Z,98057.41
2019-01-21T14:39:54.106Z,98054.33
2019-01-21T14:43:08.506Z,98058.89
2019-01-21T14:46:35.462Z,98056.12
2019-01-21T14:49:50.244Z,98062.09
2019-01-21T14:53:02.489Z,98063.33
2019-01-21T14:56:35.108Z,98056.48
2019-01-21T14:59:44.833Z,98052.53
2019-01-21T15:03:07.966Z,98044.20
2019-01-21T15:06:14.822Z,98045.41
2019-01-21T15:10:16.410Z,98045.10
2019-01-21T15:14:11.775Z,98044.97
2019-01-21T15:17:22.482Z,98052.31
2019-01-21T15:20:46.767Z,98059.88
2019-01-21T15:24:09.617Z,98058.63
2019-01-21T15:27:05.384Z,98064.62
2019-01-21T15:30:32.922Z,98064.16
2019-01-21T15:33:28.412Z,98056.37
2019-01-21T15:36:37.139Z,98056.84
2019-01-21T15:39:39.495Z,98056.67
2019-01-21T15:42:50.778Z,98060.92
2019-01-21T15:45:56.079Z,98066.28
2019-01-21T15:48:38.287Z,98066.14
2019-01-21T15:51:40.281Z,98066.72
2019-01-21T15:54:58.222Z,98079.17
2019-01-21T15:58:38.699Z,98076.93
2019-01-21T16:02:30.244Z,98074.08
2019-01-21T16:05:49.850Z,98077.34
2019-01-21T16:09:02.308Z,98072.25
2019-01-21T16:12:26.802Z,98079.13
2019-01-21T16:15:35.585Z,98084.27
2019-01-21T16:18:34.359Z,98085.41
2019-01-21T16:21:52.726Z,98079.22
2019-01-21T16:25:13.641Z,98078.45
2019-01-21T16:28:41.097Z,98080.44
2019-01-21T16:32:06.642Z,98078.30
2019-01-21T16:35:14.961Z,98073.37
2019-01-21T16:38:35.267Z,98075.36
2019-01-21T16:42:00.486Z,98072.39
2019-01-21T16:44:33.564Z,98078.86
2019-01-21T16:47:06.204Z,98079.55
2019-01-21T16:49:38.682Z,98072.77
2019-01-21T16:52:11.259Z,98075.36
2019-01-21T16:54:43.734Z,98074.47
2019-01-21T16:57:16.320Z,98067.61
2019-01-21T16:59:48.861Z,98068.70
2019-01-21T17:02:21.235Z,98070.75
2019-01-21T17:04:53.728Z,98072.77
2019-01-21T17:07:26.216Z,98083.44
2019-01-21T17:09:58.599Z,98078.41
2019-01-21T17:12:30.984Z,98077.95
2019-01-21T17:15:03.563Z,98072.96
2019-01-21T17:17:35.939Z,98072.13
2019-01-21T17:20:14.731Z,98085.41
2019-01-21T17:22:47.209Z,98084.91
2019-01-21T17:25:20.030Z,98079.30
2019-01-21T17:27:52.603Z,98075.31
2019-01-21T17:30:25.191Z,98078.18
2019-01-21T17:32:57.687Z,98078.41
2019-01-21T17:35:30.269Z,98081.91
2019-01-21T17:38:02.842Z,98072.56
2019-01-21T17:40:35.438Z,98073.57
2019-01-21T17:43:07.929Z,98075.50
2019-01-21T17:45:40.412Z,98075.02
2019-01-21T17:48:13.205Z,98076.73
2019-01-21T17:50:45.774Z,98073.72
2019-01-21T17:53:18.490Z,98068.08
2019-01-21T17:55:51.271Z,98066.00
2019-01-21T17:58:23.654Z,98070.97
2019-01-21T18:00:56.182Z,98065.08
2019-01-21T18:03:28.666Z,98056.47
2019-01-21T18:06:01.059Z,98068.05
2019-01-21T18:08:33.544Z,98059.67
2019-01-21T18:11:06.033Z,98060.73
2019-01-21T18:13:38.610Z,98058.34
2019-01-21T18:16:11.186Z,98068.41
2019-01-21T18:18:43.707Z,98068.34
2019-01-21T18:21:16.335Z,98068.72
2019-01-21T18:23:48.869Z,98077.48
2019-01-21T18:26:21.505Z,98073.96
2019-01-21T18:28:53.987Z,98087.16
2019-01-21T18:31:26.363Z,98088.03
2019-01-21T18:33:58.744Z,98087.98
2019-01-21T18:36:31.321Z,98086.05
2019-01-21T18:39:04.141Z,98086.28
2019-01-21T18:41:37.663Z,98081.66
2019-01-21T18:44:10.231Z,98084.95
2019-01-21T18:46:42.725Z,98087.67
2019-01-21T18:49:15.209Z,98089.75
2019-01-21T18:51:47.597Z,98085.31
2019-01-21T18:54:20.151Z,98088.56
2019-01-21T18:56:52.701Z,98086.20
2019-01-21T18:59:25.171Z,98079.10
2019-01-21T19:01:57.662Z,98078.25
2019-01-21T19:04:30.147Z,98080.34
2019-01-21T19:07:02.841Z,98073.06
2019-01-21T19:09:35.316Z,98080.83
2019-01-21T19:12:08.000Z,98082.75
2019-01-21T19:14:40.574Z,98086.74
2019-01-21T19:17:13.066Z,98091.04
2019-01-21T19:19:45.448Z,98089.03
2019-01-21T19:22:17.840Z,98089.45
2019-01-21T19:24:50.338Z,98086.59
2019-01-21T19:27:22.814Z,98087.59
2019-01-21T19:29:55.199Z,98089.17
2019-01-21T19:32:27.680Z,98088.45
2019-01-21T19:35:00.171Z,98083.45
2019-01-21T19:37:32.745Z,98083.03
2019-01-21T19:40:06.106Z,98085.42
2019-01-21T19:42:38.487Z,98080.34
2019-01-21T19:45:11.717Z,98078.78
2019-01-21T19:47:44.225Z,98074.36
2019-01-21T19:50:19.377Z,98073.37
2019-01-21T19:52:51.973Z,98069.75
2019-01-21T19:55:37.511Z,98064.09
2019-01-21T19:58:11.269Z,98062.43
2019-01-21T20:00:43.906Z,98062.43
2019-01-21T20:03:16.479Z,98061.41
2019-01-21T20:05:49.166Z,98060.48
2019-01-21T20:08:21.660Z,98046.77
2019-01-21T20:10:54.145Z,98052.59
2019-01-21T20:13:26.641Z,98056.39
2019-01-21T20:15:59.089Z,98050.00
2019-01-21T20:18:31.580Z,98049.98
2019-01-21T20:21:04.485Z,98049.25
2019-01-21T20:23:36.956Z,98052.33
2019-01-21T20:26:09.441Z,98050.75
2019-01-21T20:28:41.815Z,98044.73
2019-01-21T20:31:14.299Z,98043.98
2019-01-21T20:33:51.962Z,98044.19
2019-01-21T20:36:20.992Z,98039.24
2019-01-21T20:38:53.374Z,98037.53
2019-01-21T20:41:25.966Z,98041.14
2019-01-21T20:43:58.444Z,98045.77
2019-01-21T20:46:31.065Z,98047.56
2019-01-21T20:49:03.597Z,98047.80
2019-01-21T20:51:36.226Z,98055.22
2019-01-21T20:54:09.055Z,98061.64
2019-01-21T20:56:41.576Z,98064.94
2019-01-21T20:59:14.075Z,98070.27
2019-01-21T21:01:46.633Z,98070.81
2019-01-21T21:04:19.606Z,98071.36
2019-01-21T21:06:51.960Z,98068.30
2019-01-21T21:09:24.332Z,98071.02
2019-01-21T21:11:56.792Z,98068.70
2019-01-21T21:14:29.166Z,98072.22
2019-01-21T21:17:01.535Z,98082.16
2019-01-21T21:19:33.899Z,98082.05
2019-01-21T21:22:06.462Z,98082.00
2019-01-21T21:24:38.814Z,98077.48
2019-01-21T21:27:11.170Z,98079.20
2019-01-21T21:29:43.871Z,98074.66
2019-01-21T21:32:16.191Z,98066.97
2019-01-21T21:34:48.657Z,98067.53
2019-01-21T21:37:21.310Z,98070.16
2019-01-21T21:39:54.437Z,98076.92
2019-01-21T21:42:27.039Z,98075.52
2019-01-21T21:44:59.403Z,98077.70
2019-01-21T21:47:31.850Z,98078.95
2019-01-21T21:50:04.634Z,98082.11
2019-01-21T21:52:36.987Z,98085.12
2019-01-21T21:55:10.837Z,98085.64
2019-01-21T21:57:43.434Z,98073.84
2019-01-21T22:00:27.022Z,98069.83
2019-01-21T22:02:59.534Z,98061.53
2019-01-21T22:05:32.155Z,98055.02
2019-01-21T22:08:04.908Z,98049.84
2019-01-21T22:10:37.669Z,98046.27
2019-01-21T22:13:10.223Z,98048.70
2019-01-21T22:15:42.582Z,98049.02
2019-01-21T22:18:14.936Z,98047.78
2019-01-21T22:20:47.601Z,98050.27
2019-01-21T22:23:19.969Z,98046.33
2019-01-21T22:25:52.447Z,98033.67
2019-01-21T22:28:24.932Z,98030.95
2019-01-21T22:30:57.415Z,98027.27
2019-01-21T22:33:29.791Z,98026.45
2019-01-21T22:36:02.271Z,98024.73
2019-01-21T22:38:34.647Z,98030.48
2019-01-21T22:41:07.240Z,98033.05
2019-01-21T22:43:39.618Z,98030.80
2019-01-21T22:46:12.194Z,98030.83
2019-01-21T22:48:44.767Z,98027.16
2019-01-21T22:51:17.357Z,98020.44
2019-01-21T22:53:49.728Z,98025.88
2019-01-21T22:56:22.113Z,98030.55
2019-01-21T22:58:54.495Z,98030.17
2019-01-21T23:01:37.010Z,98034.63
2019-01-21T23:04:09.695Z,98026.07
2019-01-21T23:06:42.324Z,98021.38
2019-01-21T23:09:14.798Z,98020.46
2019-01-21T23:11:47.683Z,98021.94
2019-01-21T23:14:20.368Z,98024.38
2019-01-21T23:16:52.759Z,98027.36
2019-01-21T23:19:25.113Z,98023.66
2019-01-21T23:21:57.595Z,98019.48
2019-01-21T23:24:30.079Z,98012.64
2019-01-21T23:27:02.466Z,98011.88
2019-01-21T23:29:34.933Z,98011.56
2019-01-21T23:32:07.426Z,98008.63
2019-01-21T23:34:44.161Z,98005.84
2019-01-21T23:37:13.931Z,98011.27
2019-01-21T23:39:46.308Z,98006.41
2019-01-21T23:42:19.092Z,97995.15
2019-01-21T23:44:51.567Z,97991.41
2019-01-21T23:47:24.051Z,97987.63
2019-01-21T23:49:56.523Z,97988.24
2019-01-21T23:52:28.920Z,97990.34
2019-01-21T23:55:02.454Z,97987.42
2019-01-21T23:57:34.871Z,97988.44
